Terminal Aerodrome Forecast
Issued by NWS Grand Rapids, MI

Home | Current Version | Previous Version | Text Only | Print | Product List | Glossary On
Versions: 1 2 3 4 5 6 7 8 9 10 11 12 13 14
000
FTUS43 KGRR 291129
TAFGRR
TAF
KGRR 291129Z 2912/3012 20008KT P6SM VCSH BKN050
      TEMPO 2915/2918 5SM -SHRA BR SCT015 BKN025
     FM291900 26012G20KT P6SM SCT050 BKN250
     FM300100 25007KT P6SM SKC=

USA.gov is the U.S. government's official web portal to all federal, state and local government web resources and services.